sensor_id;sensor_type;location;lat;lon;timestamp;P1;durP1;ratioP1;P2;durP2;ratioP2
4957;SDS011;2494;51.872;9.688;2022-12-20T00:02:36;23.20;;;17.20;;
4957;SDS011;2494;51.872;9.688;2022-12-20T00:05:21;24.33;;;17.10;;
4957;SDS011;2494;51.872;9.688;2022-12-20T00:08:08;27.90;;;18.30;;
4957;SDS011;2494;51.872;9.688;2022-12-20T00:10:54;25.97;;;16.80;;
4957;SDS011;2494;51.872;9.688;2022-12-20T00:13:39;24.27;;;16.77;;
4957;SDS011;2494;51.872;9.688;2022-12-20T00:16:25;22.60;;;17.23;;
4957;SDS011;2494;51.872;9.688;2022-12-20T00:19:11;24.10;;;17.10;;
4957;SDS011;2494;51.872;9.688;2022-12-20T00:21:56;24.80;;;17.60;;
4957;SDS011;2494;51.872;9.688;2022-12-20T00:24:43;24.17;;;15.57;;
4957;SDS011;2494;51.872;9.688;2022-12-20T00:27:28;23.83;;;16.93;;
4957;SDS011;2494;51.872;9.688;2022-12-20T00:30:13;25.50;;;16.73;;
4957;SDS011;2494;51.872;9.688;2022-12-20T00:32:58;21.23;;;16.47;;
4957;SDS011;2494;51.872;9.688;2022-12-20T00:35:44;28.23;;;17.53;;
4957;SDS011;2494;51.872;9.688;2022-12-20T00:38:29;25.33;;;16.30;;
4957;SDS011;2494;51.872;9.688;2022-12-20T00:41:16;22.73;;;15.80;;
4957;SDS011;2494;51.872;9.688;2022-12-20T00:44:01;23.97;;;16.40;;
4957;SDS011;2494;51.872;9.688;2022-12-20T00:46:47;20.10;;;15.03;;
4957;SDS011;2494;51.872;9.688;2022-12-20T00:49:33;23.17;;;15.77;;
4957;SDS011;2494;51.872;9.688;2022-12-20T00:52:17;23.10;;;16.60;;
4957;SDS011;2494;51.872;9.688;2022-12-20T00:55:02;21.00;;;15.77;;
4957;SDS011;2494;51.872;9.688;2022-12-20T00:57:49;25.60;;;17.33;;
4957;SDS011;2494;51.872;9.688;2022-12-20T01:00:34;20.57;;;16.43;;
4957;SDS011;2494;51.872;9.688;2022-12-20T01:03:19;21.50;;;16.00;;
4957;SDS011;2494;51.872;9.688;2022-12-20T01:06:05;19.27;;;14.70;;
4957;SDS011;2494;51.872;9.688;2022-12-20T01:08:50;21.47;;;16.27;;
4957;SDS011;2494;51.872;9.688;2022-12-20T01:11:36;23.27;;;17.70;;
4957;SDS011;2494;51.872;9.688;2022-12-20T01:14:23;20.50;;;16.20;;
4957;SDS011;2494;51.872;9.688;2022-12-20T01:17:08;21.97;;;15.03;;
4957;SDS011;2494;51.872;9.688;2022-12-20T01:19:53;19.63;;;15.00;;
4957;SDS011;2494;51.872;9.688;2022-12-20T01:22:37;19.00;;;14.73;;
4957;SDS011;2494;51.872;9.688;2022-12-20T01:25:22;21.43;;;16.23;;
4957;SDS011;2494;51.872;9.688;2022-12-20T01:28:07;21.23;;;17.10;;
4957;SDS011;2494;51.872;9.688;2022-12-20T01:30:54;18.97;;;14.80;;
4957;SDS011;2494;51.872;9.688;2022-12-20T01:33:40;22.53;;;16.57;;
4957;SDS011;2494;51.872;9.688;2022-12-20T01:36:26;21.83;;;14.20;;
4957;SDS011;2494;51.872;9.688;2022-12-20T01:39:13;21.97;;;16.13;;
4957;SDS011;2494;51.872;9.688;2022-12-20T01:41:58;25.60;;;16.90;;
4957;SDS011;2494;51.872;9.688;2022-12-20T01:44:52;20.20;;;15.57;;
4957;SDS011;2494;51.872;9.688;2022-12-20T01:47:39;21.70;;;16.33;;
4957;SDS011;2494;51.872;9.688;2022-12-20T01:50:25;18.97;;;15.33;;
4957;SDS011;2494;51.872;9.688;2022-12-20T01:53:10;22.50;;;16.27;;
4957;SDS011;2494;51.872;9.688;2022-12-20T01:55:56;23.90;;;16.13;;
4957;SDS011;2494;51.872;9.688;2022-12-20T01:58:43;25.50;;;17.57;;
4957;SDS011;2494;51.872;9.688;2022-12-20T02:01:30;18.57;;;16.37;;
4957;SDS011;2494;51.872;9.688;2022-12-20T02:04:17;21.50;;;16.10;;
4957;SDS011;2494;51.872;9.688;2022-12-20T02:07:04;21.87;;;14.90;;
4957;SDS011;2494;51.872;9.688;2022-12-20T02:09:50;22.63;;;16.33;;
4957;SDS011;2494;51.872;9.688;2022-12-20T02:12:37;20.50;;;14.90;;
4957;SDS011;2494;51.872;9.688;2022-12-20T02:15:31;18.20;;;15.07;;
4957;SDS011;2494;51.872;9.688;2022-12-20T02:18:19;24.73;;;16.67;;
4957;SDS011;2494;51.872;9.688;2022-12-20T02:27:16;21.27;;;15.20;;
4957;SDS011;2494;51.872;9.688;2022-12-20T02:30:12;20.43;;;14.97;;
4957;SDS011;2494;51.872;9.688;2022-12-20T02:32:58;23.73;;;15.63;;
4957;SDS011;2494;51.872;9.688;2022-12-20T02:35:43;21.97;;;15.27;;
4957;SDS011;2494;51.872;9.688;2022-12-20T02:38:29;21.67;;;15.80;;
4957;SDS011;2494;51.872;9.688;2022-12-20T02:41:17;22.03;;;15.83;;
4957;SDS011;2494;51.872;9.688;2022-12-20T02:44:04;19.03;;;15.57;;
4957;SDS011;2494;51.872;9.688;2022-12-20T02:47:11;22.10;;;15.50;;
4957;SDS011;2494;51.872;9.688;2022-12-20T02:49:57;20.13;;;14.70;;
4957;SDS011;2494;51.872;9.688;2022-12-20T02:52:43;20.20;;;14.77;;
4957;SDS011;2494;51.872;9.688;2022-12-20T02:55:30;20.47;;;15.37;;
4957;SDS011;2494;51.872;9.688;2022-12-20T02:58:19;24.10;;;16.53;;
4957;SDS011;2494;51.872;9.688;2022-12-20T03:01:06;20.00;;;14.67;;
4957;SDS011;2494;51.872;9.688;2022-12-20T03:03:54;20.60;;;15.50;;
4957;SDS011;2494;51.872;9.688;2022-12-20T03:06:53;24.50;;;17.47;;
4957;SDS011;2494;51.872;9.688;2022-12-20T03:09:40;24.47;;;16.63;;
4957;SDS011;2494;51.872;9.688;2022-12-20T03:12:26;21.07;;;15.80;;
4957;SDS011;2494;51.872;9.688;2022-12-20T03:15:11;20.23;;;16.00;;
4957;SDS011;2494;51.872;9.688;2022-12-20T03:17:57;20.97;;;15.40;;
4957;SDS011;2494;51.872;9.688;2022-12-20T03:20:44;19.40;;;16.33;;
4957;SDS011;2494;51.872;9.688;2022-12-20T03:23:29;19.10;;;14.83;;
4957;SDS011;2494;51.872;9.688;2022-12-20T03:26:15;20.90;;;16.07;;
4957;SDS011;2494;51.872;9.688;2022-12-20T03:29:00;21.73;;;16.17;;
4957;SDS011;2494;51.872;9.688;2022-12-20T03:31:46;22.00;;;16.40;;
4957;SDS011;2494;51.872;9.688;2022-12-20T03:34:31;22.40;;;16.50;;
4957;SDS011;2494;51.872;9.688;2022-12-20T03:37:18;22.00;;;15.20;;
4957;SDS011;2494;51.872;9.688;2022-12-20T03:40:03;20.97;;;13.60;;
4957;SDS011;2494;51.872;9.688;2022-12-20T03:42:49;18.67;;;15.57;;
4957;SDS011;2494;51.872;9.688;2022-12-20T03:45:34;21.80;;;15.90;;
4957;SDS011;2494;51.872;9.688;2022-12-20T03:48:19;21.13;;;16.60;;
4957;SDS011;2494;51.872;9.688;2022-12-20T03:51:05;24.77;;;17.67;;
4957;SDS011;2494;51.872;9.688;2022-12-20T03:53:51;23.13;;;16.83;;
4957;SDS011;2494;51.872;9.688;2022-12-20T03:56:37;22.73;;;15.90;;
4957;SDS011;2494;51.872;9.688;2022-12-20T03:59:22;26.60;;;16.90;;
4957;SDS011;2494;51.872;9.688;2022-12-20T04:02:07;25.60;;;17.67;;
4957;SDS011;2494;51.872;9.688;2022-12-20T04:04:52;22.43;;;17.27;;
4957;SDS011;2494;51.872;9.688;2022-12-20T04:07:37;22.77;;;17.63;;
4957;SDS011;2494;51.872;9.688;2022-12-20T04:10:24;24.10;;;14.53;;
4957;SDS011;2494;51.872;9.688;2022-12-20T04:13:09;21.93;;;16.40;;
4957;SDS011;2494;51.872;9.688;2022-12-20T04:15:55;19.97;;;16.17;;
4957;SDS011;2494;51.872;9.688;2022-12-20T04:18:40;21.47;;;16.10;;
4957;SDS011;2494;51.872;9.688;2022-12-20T04:21:26;26.53;;;16.03;;
4957;SDS011;2494;51.872;9.688;2022-12-20T04:24:12;20.93;;;15.40;;
4957;SDS011;2494;51.872;9.688;2022-12-20T04:26:59;24.47;;;17.70;;
4957;SDS011;2494;51.872;9.688;2022-12-20T04:29:44;18.03;;;14.40;;
4957;SDS011;2494;51.872;9.688;2022-12-20T04:32:29;24.83;;;15.97;;
4957;SDS011;2494;51.872;9.688;2022-12-20T04:35:15;19.43;;;15.10;;
4957;SDS011;2494;51.872;9.688;2022-12-20T04:38:00;18.03;;;14.53;;
4957;SDS011;2494;51.872;9.688;2022-12-20T04:40:47;22.70;;;14.63;;
4957;SDS011;2494;51.872;9.688;2022-12-20T04:43:33;18.33;;;15.30;;
4957;SDS011;2494;51.872;9.688;2022-12-20T04:46:19;16.80;;;12.70;;
4957;SDS011;2494;51.872;9.688;2022-12-20T04:49:04;16.70;;;13.40;;
4957;SDS011;2494;51.872;9.688;2022-12-20T04:51:49;19.33;;;14.53;;
4957;SDS011;2494;51.872;9.688;2022-12-20T04:54:34;17.17;;;13.90;;
4957;SDS011;2494;51.872;9.688;2022-12-20T04:57:18;18.00;;;14.20;;
4957;SDS011;2494;51.872;9.688;2022-12-20T05:00:06;18.17;;;12.60;;
4957;SDS011;2494;51.872;9.688;2022-12-20T05:02:51;18.37;;;14.93;;
4957;SDS011;2494;51.872;9.688;2022-12-20T05:05:37;18.70;;;12.27;;
4957;SDS011;2494;51.872;9.688;2022-12-20T05:08:22;14.90;;;12.27;;
4957;SDS011;2494;51.872;9.688;2022-12-20T05:11:08;14.57;;;12.60;;
4957;SDS011;2494;51.872;9.688;2022-12-20T05:13:53;17.40;;;12.17;;
4957;SDS011;2494;51.872;9.688;2022-12-20T05:16:40;14.47;;;11.70;;
4957;SDS011;2494;51.872;9.688;2022-12-20T05:19:25;18.50;;;13.17;;
4957;SDS011;2494;51.872;9.688;2022-12-20T05:22:10;16.57;;;12.03;;
4957;SDS011;2494;51.872;9.688;2022-12-20T05:25:13;13.33;;;11.93;;
4957;SDS011;2494;51.872;9.688;2022-12-20T05:28:16;14.77;;;12.30;;
4957;SDS011;2494;51.872;9.688;2022-12-20T05:31:01;15.87;;;13.67;;
4957;SDS011;2494;51.872;9.688;2022-12-20T05:33:47;14.87;;;11.97;;
4957;SDS011;2494;51.872;9.688;2022-12-20T05:36:33;15.43;;;12.43;;
4957;SDS011;2494;51.872;9.688;2022-12-20T05:39:17;14.40;;;12.90;;
4957;SDS011;2494;51.872;9.688;2022-12-20T05:42:03;15.50;;;12.87;;
4957;SDS011;2494;51.872;9.688;2022-12-20T05:44:48;12.97;;;11.10;;
4957;SDS011;2494;51.872;9.688;2022-12-20T05:47:34;13.60;;;11.97;;
4957;SDS011;2494;51.872;9.688;2022-12-20T05:50:20;15.60;;;12.00;;
4957;SDS011;2494;51.872;9.688;2022-12-20T05:53:05;16.50;;;12.53;;
4957;SDS011;2494;51.872;9.688;2022-12-20T05:55:51;16.00;;;11.60;;
4957;SDS011;2494;51.872;9.688;2022-12-20T05:58:36;15.23;;;12.27;;
4957;SDS011;2494;51.872;9.688;2022-12-20T06:01:22;14.50;;;12.90;;
4957;SDS011;2494;51.872;9.688;2022-12-20T06:04:08;16.17;;;13.60;;
4957;SDS011;2494;51.872;9.688;2022-12-20T06:06:55;21.90;;;14.13;;
4957;SDS011;2494;51.872;9.688;2022-12-20T06:09:40;16.00;;;11.67;;
4957;SDS011;2494;51.872;9.688;2022-12-20T06:12:25;14.33;;;11.50;;
4957;SDS011;2494;51.872;9.688;2022-12-20T06:15:10;17.30;;;12.97;;
4957;SDS011;2494;51.872;9.688;2022-12-20T06:17:56;18.30;;;12.83;;
4957;SDS011;2494;51.872;9.688;2022-12-20T06:20:41;16.10;;;12.00;;
4957;SDS011;2494;51.872;9.688;2022-12-20T06:23:28;13.50;;;12.03;;
4957;SDS011;2494;51.872;9.688;2022-12-20T06:26:13;14.60;;;11.10;;
4957;SDS011;2494;51.872;9.688;2022-12-20T06:28:58;17.30;;;13.17;;
4957;SDS011;2494;51.872;9.688;2022-12-20T06:31:44;18.73;;;12.00;;
4957;SDS011;2494;51.872;9.688;2022-12-20T06:34:30;17.00;;;12.83;;
4957;SDS011;2494;51.872;9.688;2022-12-20T06:37:15;15.87;;;12.30;;
4957;SDS011;2494;51.872;9.688;2022-12-20T06:40:02;14.60;;;11.00;;
4957;SDS011;2494;51.872;9.688;2022-12-20T06:42:48;15.67;;;12.50;;
4957;SDS011;2494;51.872;9.688;2022-12-20T06:45:33;16.43;;;12.10;;
4957;SDS011;2494;51.872;9.688;2022-12-20T06:48:19;15.60;;;12.83;;
4957;SDS011;2494;51.872;9.688;2022-12-20T06:51:04;15.60;;;12.33;;
4957;SDS011;2494;51.872;9.688;2022-12-20T06:53:50;15.90;;;12.23;;
4957;SDS011;2494;51.872;9.688;2022-12-20T06:56:37;18.53;;;12.40;;
4957;SDS011;2494;51.872;9.688;2022-12-20T06:59:22;16.30;;;11.53;;
4957;SDS011;2494;51.872;9.688;2022-12-20T07:02:08;12.93;;;11.63;;
4957;SDS011;2494;51.872;9.688;2022-12-20T07:05:00;15.37;;;13.60;;
4957;SDS011;2494;51.872;9.688;2022-12-20T07:07:45;17.77;;;12.73;;
4957;SDS011;2494;51.872;9.688;2022-12-20T07:10:32;15.13;;;12.63;;
4957;SDS011;2494;51.872;9.688;2022-12-20T07:13:19;12.83;;;11.47;;
4957;SDS011;2494;51.872;9.688;2022-12-20T07:16:04;13.83;;;11.23;;
4957;SDS011;2494;51.872;9.688;2022-12-20T07:18:50;17.10;;;11.83;;
4957;SDS011;2494;51.872;9.688;2022-12-20T07:21:35;13.73;;;12.23;;
4957;SDS011;2494;51.872;9.688;2022-12-20T07:24:21;16.43;;;12.50;;
4957;SDS011;2494;51.872;9.688;2022-12-20T07:27:06;15.63;;;12.63;;
4957;SDS011;2494;51.872;9.688;2022-12-20T07:29:53;15.93;;;11.37;;
4957;SDS011;2494;51.872;9.688;2022-12-20T07:32:39;14.30;;;11.47;;
4957;SDS011;2494;51.872;9.688;2022-12-20T07:35:24;11.93;;;10.73;;
4957;SDS011;2494;51.872;9.688;2022-12-20T07:38:09;12.63;;;10.90;;
4957;SDS011;2494;51.872;9.688;2022-12-20T07:40:55;17.27;;;12.40;;
4957;SDS011;2494;51.872;9.688;2022-12-20T07:43:40;16.80;;;10.60;;
4957;SDS011;2494;51.872;9.688;2022-12-20T07:46:27;13.43;;;11.00;;
4957;SDS011;2494;51.872;9.688;2022-12-20T07:49:12;13.53;;;12.20;;
4957;SDS011;2494;51.872;9.688;2022-12-20T07:51:57;11.73;;;10.50;;
4957;SDS011;2494;51.872;9.688;2022-12-20T07:54:45;16.20;;;12.17;;
4957;SDS011;2494;51.872;9.688;2022-12-20T07:57:31;15.23;;;12.13;;
4957;SDS011;2494;51.872;9.688;2022-12-20T08:00:18;13.13;;;11.43;;
4957;SDS011;2494;51.872;9.688;2022-12-20T08:03:06;16.70;;;10.57;;
4957;SDS011;2494;51.872;9.688;2022-12-20T08:05:52;13.67;;;10.40;;
4957;SDS011;2494;51.872;9.688;2022-12-20T08:08:40;12.23;;;9.97;;
4957;SDS011;2494;51.872;9.688;2022-12-20T08:11:27;12.13;;;10.87;;
4957;SDS011;2494;51.872;9.688;2022-12-20T08:14:13;11.03;;;9.60;;
4957;SDS011;2494;51.872;9.688;2022-12-20T08:16:59;11.50;;;10.30;;
4957;SDS011;2494;51.872;9.688;2022-12-20T08:19:46;10.03;;;9.00;;
4957;SDS011;2494;51.872;9.688;2022-12-20T08:22:31;12.63;;;10.13;;
4957;SDS011;2494;51.872;9.688;2022-12-20T08:25:16;11.23;;;9.90;;
4957;SDS011;2494;51.872;9.688;2022-12-20T08:28:01;10.47;;;8.60;;
4957;SDS011;2494;51.872;9.688;2022-12-20T08:30:47;11.20;;;9.97;;
4957;SDS011;2494;51.872;9.688;2022-12-20T08:33:33;9.63;;;8.63;;
4957;SDS011;2494;51.872;9.688;2022-12-20T08:36:20;10.47;;;9.47;;
4957;SDS011;2494;51.872;9.688;2022-12-20T08:39:06;10.37;;;9.27;;
4957;SDS011;2494;51.872;9.688;2022-12-20T08:41:51;14.03;;;8.80;;
4957;SDS011;2494;51.872;9.688;2022-12-20T08:44:37;8.30;;;7.47;;
4957;SDS011;2494;51.872;9.688;2022-12-20T08:47:22;7.70;;;6.97;;
4957;SDS011;2494;51.872;9.688;2022-12-20T08:50:07;10.23;;;9.20;;
4957;SDS011;2494;51.872;9.688;2022-12-20T08:52:54;9.77;;;8.83;;
4957;SDS011;2494;51.872;9.688;2022-12-20T08:55:39;9.17;;;8.27;;
4957;SDS011;2494;51.872;9.688;2022-12-20T08:58:25;8.50;;;7.70;;
4957;SDS011;2494;51.872;9.688;2022-12-20T09:01:11;7.87;;;7.17;;
4957;SDS011;2494;51.872;9.688;2022-12-20T09:03:57;8.70;;;7.63;;
4957;SDS011;2494;51.872;9.688;2022-12-20T09:06:42;9.40;;;7.73;;
4957;SDS011;2494;51.872;9.688;2022-12-20T09:09:29;9.73;;;8.73;;
4957;SDS011;2494;51.872;9.688;2022-12-20T09:12:15;8.77;;;7.90;;
4957;SDS011;2494;51.872;9.688;2022-12-20T09:15:00;8.20;;;7.40;;
4957;SDS011;2494;51.872;9.688;2022-12-20T09:17:45;10.83;;;8.73;;
4957;SDS011;2494;51.872;9.688;2022-12-20T09:20:32;8.90;;;7.53;;
4957;SDS011;2494;51.872;9.688;2022-12-20T09:23:17;11.53;;;7.57;;
4957;SDS011;2494;51.872;9.688;2022-12-20T09:26:04;8.77;;;7.67;;
4957;SDS011;2494;51.872;9.688;2022-12-20T09:28:50;9.50;;;7.70;;
4957;SDS011;2494;51.872;9.688;2022-12-20T09:31:35;8.07;;;6.53;;
4957;SDS011;2494;51.872;9.688;2022-12-20T09:34:20;8.20;;;7.40;;
4957;SDS011;2494;51.872;9.688;2022-12-20T09:37:04;7.30;;;6.67;;
4957;SDS011;2494;51.872;9.688;2022-12-20T09:39:50;6.90;;;6.30;;
4957;SDS011;2494;51.872;9.688;2022-12-20T09:42:37;9.33;;;7.10;;
4957;SDS011;2494;51.872;9.688;2022-12-20T09:45:24;11.53;;;6.57;;
4957;SDS011;2494;51.872;9.688;2022-12-20T09:48:10;9.47;;;7.77;;
4957;SDS011;2494;51.872;9.688;2022-12-20T09:51:04;6.90;;;6.30;;
4957;SDS011;2494;51.872;9.688;2022-12-20T09:53:54;7.43;;;6.73;;
4957;SDS011;2494;51.872;9.688;2022-12-20T09:56:45;8.90;;;7.37;;
4957;SDS011;2494;51.872;9.688;2022-12-20T09:59:33;7.50;;;6.80;;
4957;SDS011;2494;51.872;9.688;2022-12-20T10:02:19;8.20;;;7.17;;
4957;SDS011;2494;51.872;9.688;2022-12-20T10:05:07;13.50;;;10.50;;
4957;SDS011;2494;51.872;9.688;2022-12-20T10:07:54;11.27;;;7.43;;
4957;SDS011;2494;51.872;9.688;2022-12-20T10:10:48;6.30;;;5.63;;
4957;SDS011;2494;51.872;9.688;2022-12-20T10:13:37;8.40;;;6.10;;
4957;SDS011;2494;51.872;9.688;2022-12-20T10:16:34;7.33;;;6.43;;
4957;SDS011;2494;51.872;9.688;2022-12-20T10:19:24;9.57;;;6.97;;
4957;SDS011;2494;51.872;9.688;2022-12-20T10:22:13;6.90;;;6.30;;
4957;SDS011;2494;51.872;9.688;2022-12-20T10:25:05;8.47;;;6.60;;
4957;SDS011;2494;51.872;9.688;2022-12-20T10:27:56;6.20;;;5.60;;
4957;SDS011;2494;51.872;9.688;2022-12-20T10:30:41;7.87;;;7.17;;
4957;SDS011;2494;51.872;9.688;2022-12-20T10:33:29;6.40;;;5.80;;
4957;SDS011;2494;51.872;9.688;2022-12-20T10:36:21;6.40;;;5.80;;
4957;SDS011;2494;51.872;9.688;2022-12-20T10:39:07;6.33;;;5.63;;
4957;SDS011;2494;51.872;9.688;2022-12-20T10:41:52;6.73;;;5.97;;
4957;SDS011;2494;51.872;9.688;2022-12-20T10:44:38;6.40;;;5.40;;
4957;SDS011;2494;51.872;9.688;2022-12-20T10:47:23;6.40;;;5.90;;
4957;SDS011;2494;51.872;9.688;2022-12-20T10:50:14;7.07;;;5.23;;
4957;SDS011;2494;51.872;9.688;2022-12-20T10:53:21;5.97;;;5.37;;
4957;SDS011;2494;51.872;9.688;2022-12-20T10:56:12;5.63;;;5.13;;
4957;SDS011;2494;51.872;9.688;2022-12-20T10:58:58;6.97;;;6.10;;
4957;SDS011;2494;51.872;9.688;2022-12-20T11:01:43;5.80;;;5.30;;
4957;SDS011;2494;51.872;9.688;2022-12-20T11:04:30;5.77;;;5.17;;
4957;SDS011;2494;51.872;9.688;2022-12-20T11:07:22;5.63;;;4.40;;
4957;SDS011;2494;51.872;9.688;2022-12-20T11:10:16;5.00;;;4.60;;
4957;SDS011;2494;51.872;9.688;2022-12-20T11:13:01;6.60;;;4.87;;
4957;SDS011;2494;51.872;9.688;2022-12-20T11:15:47;4.30;;;4.00;;
4957;SDS011;2494;51.872;9.688;2022-12-20T11:18:37;7.27;;;4.97;;
4957;SDS011;2494;51.872;9.688;2022-12-20T11:21:26;4.77;;;4.37;;
4957;SDS011;2494;51.872;9.688;2022-12-20T11:24:17;5.20;;;4.80;;
4957;SDS011;2494;51.872;9.688;2022-12-20T11:27:08;4.97;;;4.57;;
4957;SDS011;2494;51.872;9.688;2022-12-20T11:30:03;5.47;;;4.83;;
4957;SDS011;2494;51.872;9.688;2022-12-20T11:32:54;4.33;;;3.83;;
4957;SDS011;2494;51.872;9.688;2022-12-20T11:35:47;4.70;;;4.30;;
4957;SDS011;2494;51.872;9.688;2022-12-20T11:38:37;4.73;;;4.30;;
4957;SDS011;2494;51.872;9.688;2022-12-20T11:41:27;4.70;;;4.30;;
4957;SDS011;2494;51.872;9.688;2022-12-20T11:44:16;4.70;;;4.30;;
4957;SDS011;2494;51.872;9.688;2022-12-20T11:47:11;5.87;;;4.53;;
4957;SDS011;2494;51.872;9.688;2022-12-20T11:50:11;5.90;;;5.40;;
4957;SDS011;2494;51.872;9.688;2022-12-20T11:53:03;4.43;;;4.03;;
4957;SDS011;2494;51.872;9.688;2022-12-20T11:55:52;4.60;;;4.20;;
4957;SDS011;2494;51.872;9.688;2022-12-20T11:58:44;4.83;;;4.40;;
4957;SDS011;2494;51.872;9.688;2022-12-20T12:01:30;5.10;;;4.60;;
4957;SDS011;2494;51.872;9.688;2022-12-20T12:04:17;7.07;;;5.30;;
4957;SDS011;2494;51.872;9.688;2022-12-20T12:07:03;4.60;;;4.30;;
4957;SDS011;2494;51.872;9.688;2022-12-20T12:09:52;5.30;;;4.57;;
4957;SDS011;2494;51.872;9.688;2022-12-20T12:12:41;5.17;;;4.67;;
4957;SDS011;2494;51.872;9.688;2022-12-20T12:15:30;5.17;;;4.47;;
4957;SDS011;2494;51.872;9.688;2022-12-20T12:18:19;5.07;;;4.60;;
4957;SDS011;2494;51.872;9.688;2022-12-20T12:21:05;6.10;;;4.80;;
4957;SDS011;2494;51.872;9.688;2022-12-20T12:23:56;8.07;;;4.97;;
4957;SDS011;2494;51.872;9.688;2022-12-20T12:26:43;4.97;;;4.47;;
4957;SDS011;2494;51.872;9.688;2022-12-20T12:29:28;4.57;;;4.27;;
4957;SDS011;2494;51.872;9.688;2022-12-20T12:32:16;5.07;;;4.63;;
4957;SDS011;2494;51.872;9.688;2022-12-20T12:35:08;3.70;;;3.40;;
4957;SDS011;2494;51.872;9.688;2022-12-20T12:38:03;5.10;;;4.37;;
4957;SDS011;2494;51.872;9.688;2022-12-20T12:40:59;4.77;;;4.37;;
4957;SDS011;2494;51.872;9.688;2022-12-20T12:43:49;6.00;;;5.47;;
4957;SDS011;2494;51.872;9.688;2022-12-20T12:46:35;5.30;;;4.90;;
4957;SDS011;2494;51.872;9.688;2022-12-20T12:49:23;4.97;;;4.57;;
4957;SDS011;2494;51.872;9.688;2022-12-20T12:52:24;5.47;;;5.07;;
4957;SDS011;2494;51.872;9.688;2022-12-20T12:58:29;5.73;;;5.13;;
4957;SDS011;2494;51.872;9.688;2022-12-20T13:01:25;5.90;;;4.43;;
4957;SDS011;2494;51.872;9.688;2022-12-20T13:04:24;6.00;;;5.40;;
4957;SDS011;2494;51.872;9.688;2022-12-20T13:07:26;4.83;;;4.40;;
4957;SDS011;2494;51.872;9.688;2022-12-20T13:13:19;4.87;;;4.50;;
4957;SDS011;2494;51.872;9.688;2022-12-20T13:16:09;5.43;;;4.90;;
4957;SDS011;2494;51.872;9.688;2022-12-20T13:18:56;6.47;;;4.90;;
4957;SDS011;2494;51.872;9.688;2022-12-20T13:21:44;5.97;;;5.30;;
4957;SDS011;2494;51.872;9.688;2022-12-20T13:24:35;6.40;;;5.27;;
4957;SDS011;2494;51.872;9.688;2022-12-20T13:27:22;5.27;;;4.80;;
4957;SDS011;2494;51.872;9.688;2022-12-20T13:33:18;6.93;;;5.20;;
4957;SDS011;2494;51.872;9.688;2022-12-20T13:39:31;5.17;;;4.73;;
4957;SDS011;2494;51.872;9.688;2022-12-20T13:42:23;5.43;;;4.90;;
4957;SDS011;2494;51.872;9.688;2022-12-20T13:45:11;4.70;;;4.30;;
4957;SDS011;2494;51.872;9.688;2022-12-20T13:47:57;4.50;;;4.10;;
4957;SDS011;2494;51.872;9.688;2022-12-20T13:50:46;5.47;;;4.33;;
4957;SDS011;2494;51.872;9.688;2022-12-20T13:53:33;5.23;;;4.83;;
4957;SDS011;2494;51.872;9.688;2022-12-20T13:56:26;5.07;;;4.67;;
4957;SDS011;2494;51.872;9.688;2022-12-20T13:59:15;5.97;;;5.50;;
4957;SDS011;2494;51.872;9.688;2022-12-20T14:02:09;4.80;;;4.30;;
4957;SDS011;2494;51.872;9.688;2022-12-20T14:04:56;4.70;;;4.40;;
4957;SDS011;2494;51.872;9.688;2022-12-20T14:07:42;4.90;;;4.10;;
4957;SDS011;2494;51.872;9.688;2022-12-20T14:10:28;5.97;;;4.80;;
4957;SDS011;2494;51.872;9.688;2022-12-20T14:13:18;4.83;;;4.20;;
4957;SDS011;2494;51.872;9.688;2022-12-20T14:16:09;6.13;;;5.70;;
4957;SDS011;2494;51.872;9.688;2022-12-20T14:19:01;5.10;;;4.60;;
4957;SDS011;2494;51.872;9.688;2022-12-20T14:21:47;11.27;;;5.43;;
4957;SDS011;2494;51.872;9.688;2022-12-20T14:24:32;6.53;;;4.50;;
4957;SDS011;2494;51.872;9.688;2022-12-20T14:27:18;5.90;;;5.40;;
4957;SDS011;2494;51.872;9.688;2022-12-20T14:33:12;4.67;;;4.17;;
4957;SDS011;2494;51.872;9.688;2022-12-20T14:36:05;4.93;;;4.63;;
4957;SDS011;2494;51.872;9.688;2022-12-20T14:38:51;5.30;;;4.30;;
4957;SDS011;2494;51.872;9.688;2022-12-20T14:41:37;5.80;;;4.30;;
4957;SDS011;2494;51.872;9.688;2022-12-20T14:44:23;5.07;;;4.67;;
4957;SDS011;2494;51.872;9.688;2022-12-20T14:47:12;4.50;;;4.10;;
4957;SDS011;2494;51.872;9.688;2022-12-20T14:50:00;7.17;;;4.53;;
4957;SDS011;2494;51.872;9.688;2022-12-20T14:52:46;7.60;;;7.00;;
4957;SDS011;2494;51.872;9.688;2022-12-20T14:55:32;4.73;;;4.33;;
4957;SDS011;2494;51.872;9.688;2022-12-20T14:58:23;4.50;;;4.20;;
4957;SDS011;2494;51.872;9.688;2022-12-20T15:01:16;4.53;;;4.13;;
4957;SDS011;2494;51.872;9.688;2022-12-20T15:04:02;4.13;;;3.83;;
4957;SDS011;2494;51.872;9.688;2022-12-20T15:06:49;5.83;;;4.17;;
4957;SDS011;2494;51.872;9.688;2022-12-20T15:09:35;4.30;;;3.90;;
4957;SDS011;2494;51.872;9.688;2022-12-20T15:12:20;4.47;;;4.17;;
4957;SDS011;2494;51.872;9.688;2022-12-20T15:15:07;5.03;;;4.63;;
4957;SDS011;2494;51.872;9.688;2022-12-20T15:17:53;4.30;;;3.70;;
4957;SDS011;2494;51.872;9.688;2022-12-20T15:20:38;6.77;;;5.10;;
4957;SDS011;2494;51.872;9.688;2022-12-20T15:23:25;7.00;;;4.13;;
4957;SDS011;2494;51.872;9.688;2022-12-20T15:26:11;3.27;;;3.07;;
4957;SDS011;2494;51.872;9.688;2022-12-20T15:28:58;5.30;;;4.20;;
4957;SDS011;2494;51.872;9.688;2022-12-20T15:31:43;5.23;;;4.20;;
4957;SDS011;2494;51.872;9.688;2022-12-20T15:34:29;7.00;;;3.70;;
4957;SDS011;2494;51.872;9.688;2022-12-20T15:37:16;5.50;;;3.33;;
4957;SDS011;2494;51.872;9.688;2022-12-20T15:40:02;5.17;;;4.83;;
4957;SDS011;2494;51.872;9.688;2022-12-20T15:42:48;7.90;;;4.50;;
4957;SDS011;2494;51.872;9.688;2022-12-20T15:45:33;4.23;;;3.83;;
4957;SDS011;2494;51.872;9.688;2022-12-20T15:48:19;4.43;;;4.00;;
4957;SDS011;2494;51.872;9.688;2022-12-20T15:51:11;4.93;;;4.53;;
4957;SDS011;2494;51.872;9.688;2022-12-20T15:53:57;4.13;;;2.93;;
4957;SDS011;2494;51.872;9.688;2022-12-20T15:56:43;4.27;;;3.87;;
4957;SDS011;2494;51.872;9.688;2022-12-20T15:59:29;4.87;;;4.47;;
4957;SDS011;2494;51.872;9.688;2022-12-20T16:02:16;4.13;;;3.83;;
4957;SDS011;2494;51.872;9.688;2022-12-20T16:05:04;6.60;;;6.00;;
4957;SDS011;2494;51.872;9.688;2022-12-20T16:07:49;8.90;;;7.20;;
4957;SDS011;2494;51.872;9.688;2022-12-20T16:10:34;4.13;;;3.83;;
4957;SDS011;2494;51.872;9.688;2022-12-20T16:13:22;4.70;;;4.30;;
4957;SDS011;2494;51.872;9.688;2022-12-20T16:16:08;4.43;;;4.13;;
4957;SDS011;2494;51.872;9.688;2022-12-20T16:18:57;4.90;;;4.60;;
4957;SDS011;2494;51.872;9.688;2022-12-20T16:21:43;4.10;;;3.80;;
4957;SDS011;2494;51.872;9.688;2022-12-20T16:24:29;4.30;;;4.00;;
4957;SDS011;2494;51.872;9.688;2022-12-20T16:27:14;5.60;;;5.10;;
4957;SDS011;2494;51.872;9.688;2022-12-20T16:30:01;6.57;;;5.30;;
4957;SDS011;2494;51.872;9.688;2022-12-20T16:32:46;5.47;;;5.07;;
4957;SDS011;2494;51.872;9.688;2022-12-20T16:35:32;5.43;;;5.13;;
4957;SDS011;2494;51.872;9.688;2022-12-20T16:38:19;4.63;;;4.33;;
4957;SDS011;2494;51.872;9.688;2022-12-20T16:41:09;4.60;;;4.23;;
4957;SDS011;2494;51.872;9.688;2022-12-20T16:43:56;5.63;;;5.20;;
4957;SDS011;2494;51.872;9.688;2022-12-20T16:46:43;5.80;;;5.10;;
4957;SDS011;2494;51.872;9.688;2022-12-20T16:49:28;6.90;;;6.40;;
4957;SDS011;2494;51.872;9.688;2022-12-20T16:52:14;6.07;;;5.67;;
4957;SDS011;2494;51.872;9.688;2022-12-20T16:55:00;5.70;;;5.30;;
4957;SDS011;2494;51.872;9.688;2022-12-20T16:57:44;7.00;;;6.40;;
4957;SDS011;2494;51.872;9.688;2022-12-20T17:00:30;9.33;;;7.07;;
4957;SDS011;2494;51.872;9.688;2022-12-20T17:03:17;8.00;;;7.20;;
4957;SDS011;2494;51.872;9.688;2022-12-20T17:06:02;6.27;;;5.77;;
4957;SDS011;2494;51.872;9.688;2022-12-20T17:08:48;5.97;;;5.00;;
4957;SDS011;2494;51.872;9.688;2022-12-20T17:11:33;10.40;;;4.73;;
4957;SDS011;2494;51.872;9.688;2022-12-20T17:14:18;5.27;;;4.87;;
4957;SDS011;2494;51.872;9.688;2022-12-20T17:17:04;5.67;;;5.07;;
4957;SDS011;2494;51.872;9.688;2022-12-20T17:19:51;7.27;;;4.70;;
4957;SDS011;2494;51.872;9.688;2022-12-20T17:22:36;5.43;;;5.03;;
4957;SDS011;2494;51.872;9.688;2022-12-20T17:25:25;4.53;;;4.23;;